Time;durP1;ratioP1;P1;durP2;ratioP2;P2;SDS_P1;SDS_P2;PMS_P1;PMS_P2;Temp;Humidity;BMP_temperature;BMP_pressure;BME280_temperature;BME280_humidity;BME280_pressure;Samples;Min_cycle;Max_cycle;Signal;HPM_P1;HPM_P2
2023/03/07 00:00:45;;;;;;;11.27;5.10;;;;;;;;;;6300458;22;20464;-82
2023/03/07 00:03:13;;;;;;;11.23;5.38;;;;;;;;;;6298752;22;20054;-82
2023/03/07 00:05:40;;;;;;;13.02;5.15;;;;;;;;;;6272573;22;20022;-83
2023/03/07 00:08:08;;;;;;;10.50;4.65;;;;;;;;;;6300847;22;20023;-83
2023/03/07 00:10:34;;;;;;;17.30;5.03;;;;;;;;;;6301349;22;20024;-83
2023/03/07 00:13:00;;;;;;;14.90;5.28;;;;;;;;;;6272182;22;20461;-82
2023/03/07 00:15:27;;;;;;;12.98;5.20;;;;;;;;;;6273267;22;20020;-84
2023/03/07 00:17:53;;;;;;;10.68;4.43;;;;;;;;;;6301228;22;20688;-84
2023/03/07 00:20:19;;;;;;;12.02;4.50;;;;;;;;;;6300135;22;20528;-83
2023/03/07 00:22:46;;;;;;;13.55;4.68;;;;;;;;;;6271662;22;20118;-82
2023/03/07 00:25:13;;;;;;;9.88;4.30;;;;;;;;;;6300936;22;20024;-82
2023/03/07 00:27:40;;;;;;;17.08;4.88;;;;;;;;;;6272462;22;20106;-83
2023/03/07 00:30:08;;;;;;;17.40;4.93;;;;;;;;;;6299474;22;20069;-81
2023/03/07 00:32:34;;;;;;;15.80;5.32;;;;;;;;;;6273351;22;20030;-82
2023/03/07 00:35:01;;;;;;;10.57;4.53;;;;;;;;;;6298480;22;20025;-82
2023/03/07 00:37:29;;;;;;;10.63;4.82;;;;;;;;;;6297941;22;20016;-82
2023/03/07 00:40:05;;;;;;;11.38;4.63;;;;;;;;;;6297716;22;20027;-82
2023/03/07 00:42:37;;;;;;;13.60;4.88;;;;;;;;;;6272148;22;20015;-82
2023/03/07 00:45:12;;;;;;;12.95;5.07;;;;;;;;;;6296834;22;20077;-81
2023/03/07 00:47:46;;;;;;;11.40;5.20;;;;;;;;;;6298389;22;20038;-81
2023/03/07 00:50:19;;;;;;;9.27;4.50;;;;;;;;;;6297382;22;20020;-82
2023/03/07 00:52:58;;;;;;;8.50;3.60;;;;;;;;;;6298540;22;20031;-81
2023/03/07 00:55:32;;;;;;;8.98;3.90;;;;;;;;;;6298240;22;20019;-80
2023/03/07 00:58:06;;;;;;;9.52;4.45;;;;;;;;;;6298215;22;20030;-82
2023/03/07 01:00:40;;;;;;;10.77;4.05;;;;;;;;;;6296449;22;20035;-81
2023/03/07 01:03:15;;;;;;;9.80;3.75;;;;;;;;;;6295857;22;20822;-81
2023/03/07 01:05:48;;;;;;;8.90;3.47;;;;;;;;;;6298245;22;20035;-82
2023/03/07 01:08:23;;;;;;;9.55;3.78;;;;;;;;;;6297291;22;20035;-81
2023/03/07 01:10:59;;;;;;;11.32;4.10;;;;;;;;;;6297189;22;20555;-81
2023/03/07 01:13:33;;;;;;;11.27;3.72;;;;;;;;;;6297406;22;20028;-81
2023/03/07 01:16:20;;;;;;;12.60;4.15;;;;;;;;;;6297720;22;20024;-81
2023/03/07 01:18:55;;;;;;;12.18;4.20;;;;;;;;;;6299243;22;20024;-81
2023/03/07 01:21:30;;;;;;;11.75;4.35;;;;;;;;;;6297751;22;20541;-80
2023/03/07 01:24:03;;;;;;;9.23;3.60;;;;;;;;;;6270248;22;20036;-81
2023/03/07 01:26:36;;;;;;;13.63;4.07;;;;;;;;;;6299070;22;20035;-82
2023/03/07 01:29:11;;;;;;;9.43;4.13;;;;;;;;;;6299024;22;20016;-81
2023/03/07 01:31:45;;;;;;;12.25;4.70;;;;;;;;;;6298988;22;20024;-81
2023/03/07 01:34:19;;;;;;;12.73;4.32;;;;;;;;;;6296235;22;20024;-81
2023/03/07 01:36:54;;;;;;;11.02;4.63;;;;;;;;;;6274292;22;20034;-80
2023/03/07 01:39:29;;;;;;;12.30;4.90;;;;;;;;;;6298881;22;20151;-81
2023/03/07 01:42:02;;;;;;;10.65;4.72;;;;;;;;;;6299271;22;20035;-80
2023/03/07 01:44:53;;;;;;;10.68;4.82;;;;;;;;;;6298185;22;20483;-80
2023/03/07 01:47:27;;;;;;;11.50;4.20;;;;;;;;;;6300557;22;20012;-81
2023/03/07 01:50:03;;;;;;;9.80;4.40;;;;;;;;;;6273879;22;20034;-81
2023/03/07 01:52:54;;;;;;;12.32;4.10;;;;;;;;;;6299990;22;20028;-80
2023/03/07 01:55:31;;;;;;;14.27;4.70;;;;;;;;;;6298219;22;20031;-80
2023/03/07 01:58:08;;;;;;;11.88;3.95;;;;;;;;;;6300095;22;20024;-82
2023/03/07 02:00:43;;;;;;;9.05;3.78;;;;;;;;;;6299293;22;20077;-81
2023/03/07 02:03:29;;;;;;;15.25;3.95;;;;;;;;;;6298615;22;20510;-81
2023/03/07 02:06:05;;;;;;;14.02;3.78;;;;;;;;;;6299212;22;20028;-81
2023/03/07 02:08:40;;;;;;;9.95;3.38;;;;;;;;;;6300117;22;20522;-82
2023/03/07 02:11:15;;;;;;;11.23;3.42;;;;;;;;;;6297946;22;20035;-82
2023/03/07 02:13:48;;;;;;;11.70;3.58;;;;;;;;;;6298935;22;20077;-81
2023/03/07 02:16:24;;;;;;;14.15;4.22;;;;;;;;;;6298667;22;20027;-81
2023/03/07 02:18:58;;;;;;;9.73;3.55;;;;;;;;;;6299532;22;20812;-82
2023/03/07 02:21:35;;;;;;;12.02;3.40;;;;;;;;;;6273678;22;20063;-81
2023/03/07 02:24:08;;;;;;;11.45;3.28;;;;;;;;;;6298810;22;20042;-81
2023/03/07 02:26:50;;;;;;;10.02;3.33;;;;;;;;;;6299858;22;20019;-80
2023/03/07 02:29:24;;;;;;;12.38;3.85;;;;;;;;;;6298730;22;20103;-80
2023/03/07 02:31:58;;;;;;;9.38;3.50;;;;;;;;;;6299855;22;20032;-82
2023/03/07 02:34:36;;;;;;;9.13;3.78;;;;;;;;;;6272462;22;20477;-81
2023/03/07 02:37:11;;;;;;;10.55;3.30;;;;;;;;;;6273174;22;20020;-81
2023/03/07 02:39:47;;;;;;;10.63;3.95;;;;;;;;;;6299536;22;20028;-81
2023/03/07 02:42:23;;;;;;;13.20;3.40;;;;;;;;;;6301339;22;20024;-81
2023/03/07 02:44:57;;;;;;;6.97;3.10;;;;;;;;;;6272442;22;20063;-81
2023/03/07 02:47:31;;;;;;;12.05;3.58;;;;;;;;;;6300987;22;20435;-81
2023/03/07 02:50:04;;;;;;;12.15;3.40;;;;;;;;;;6300149;22;20019;-81
2023/03/07 02:52:37;;;;;;;12.10;3.38;;;;;;;;;;6300606;22;20028;-82
2023/03/07 02:55:10;;;;;;;9.10;3.30;;;;;;;;;;6299676;22;20058;-81
2023/03/07 02:57:44;;;;;;;8.93;3.20;;;;;;;;;;6300101;22;20023;-82
2023/03/07 03:00:18;;;;;;;9.35;3.30;;;;;;;;;;6299195;22;20034;-81
2023/03/07 03:02:53;;;;;;;7.78;2.95;;;;;;;;;;6298619;22;20814;-82
2023/03/07 03:05:27;;;;;;;10.90;3.13;;;;;;;;;;6300225;22;20094;-80
2023/03/07 03:08:01;;;;;;;8.57;2.75;;;;;;;;;;6300148;22;20032;-81
2023/03/07 03:10:35;;;;;;;11.90;2.92;;;;;;;;;;6300651;22;20447;-82
2023/03/07 03:13:08;;;;;;;11.85;2.90;;;;;;;;;;6300595;22;20028;-82
2023/03/07 03:15:43;;;;;;;13.18;2.55;;;;;;;;;;6303613;22;20024;-81
2023/03/07 03:18:16;;;;;;;7.28;2.60;;;;;;;;;;6305348;22;20451;-81
2023/03/07 03:20:51;;;;;;;11.02;2.78;;;;;;;;;;6304166;22;20038;-82
2023/03/07 03:23:27;;;;;;;11.77;2.80;;;;;;;;;;6303972;22;20058;-83
2023/03/07 03:26:04;;;;;;;9.40;2.50;;;;;;;;;;6279435;22;20035;-81
2023/03/07 03:28:37;;;;;;;13.27;2.63;;;;;;;;;;6306862;22;20012;-80
2023/03/07 03:31:15;;;;;;;8.95;2.83;;;;;;;;;;6305145;22;20047;-83
2023/03/07 03:33:51;;;;;;;10.57;2.60;;;;;;;;;;6278300;22;20028;-83
2023/03/07 03:36:24;;;;;;;12.77;2.83;;;;;;;;;;6306101;22;20078;-80
2023/03/07 03:38:59;;;;;;;6.15;2.38;;;;;;;;;;6304259;22;20024;-80
2023/03/07 03:41:32;;;;;;;13.20;2.92;;;;;;;;;;6303000;22;20083;-82
2023/03/07 03:44:07;;;;;;;8.10;2.78;;;;;;;;;;6302885;22;20012;-82
2023/03/07 03:46:42;;;;;;;11.02;1.90;;;;;;;;;;6301971;22;20024;-82
2023/03/07 03:49:18;;;;;;;8.60;2.33;;;;;;;;;;6302919;22;20019;-83
2023/03/07 03:51:54;;;;;;;11.45;2.63;;;;;;;;;;6276252;22;20099;-83
2023/03/07 03:54:29;;;;;;;10.68;2.60;;;;;;;;;;6300952;22;20023;-82
2023/03/07 03:57:02;;;;;;;12.60;2.53;;;;;;;;;;6276391;22;20543;-82
2023/03/07 03:59:36;;;;;;;11.02;2.78;;;;;;;;;;6303851;22;20015;-82
2023/03/07 04:02:10;;;;;;;10.25;2.60;;;;;;;;;;6302790;22;20058;-82
2023/03/07 04:04:44;;;;;;;7.75;2.13;;;;;;;;;;6300144;22;20503;-83
2023/03/07 04:07:19;;;;;;;11.27;2.20;;;;;;;;;;6302181;22;20944;-82
2023/03/07 04:09:53;;;;;;;10.05;2.47;;;;;;;;;;6302037;22;20034;-82
2023/03/07 04:12:28;;;;;;;11.10;2.33;;;;;;;;;;6302159;22;20046;-82
2023/03/07 04:15:03;;;;;;;10.60;2.40;;;;;;;;;;6298614;22;20081;-82
2023/03/07 04:17:37;;;;;;;8.93;2.08;;;;;;;;;;6303273;22;20027;-83
2023/03/07 04:20:16;;;;;;;5.97;2.42;;;;;;;;;;6300609;22;20105;-81
2023/03/07 04:22:54;;;;;;;10.02;2.42;;;;;;;;;;6273834;22;20032;-81
2023/03/07 04:25:27;;;;;;;6.72;2.40;;;;;;;;;;6300697;22;20027;-81
2023/03/07 04:28:02;;;;;;;14.48;2.85;;;;;;;;;;6300655;22;20038;-83
2023/03/07 04:30:37;;;;;;;13.55;4.65;;;;;;;;;;6301223;22;20042;-81
2023/03/07 04:33:11;;;;;;;12.70;2.80;;;;;;;;;;6299193;22;20068;-83
2023/03/07 04:35:48;;;;;;;11.60;3.15;;;;;;;;;;6273221;22;20027;-82
2023/03/07 04:38:21;;;;;;;11.15;2.90;;;;;;;;;;6300192;22;20027;-83
2023/03/07 04:40:56;;;;;;;11.52;2.63;;;;;;;;;;6300883;22;20020;-82
2023/03/07 04:43:31;;;;;;;7.32;2.17;;;;;;;;;;6273025;22;20658;-81
2023/03/07 04:46:03;;;;;;;6.15;1.58;;;;;;;;;;6299820;22;20077;-80
2023/03/07 04:48:37;;;;;;;7.07;2.10;;;;;;;;;;6301026;22;20105;-82
2023/03/07 04:51:11;;;;;;;6.60;1.48;;;;;;;;;;6299943;22;20879;-80
2023/03/07 04:53:45;;;;;;;6.13;1.40;;;;;;;;;;6298681;22;20859;-81
2023/03/07 04:56:19;;;;;;;6.32;2.03;;;;;;;;;;6299620;22;20024;-81
2023/03/07 04:58:54;;;;;;;11.80;1.90;;;;;;;;;;6300337;22;20028;-80
2023/03/07 05:01:27;;;;;;;10.38;1.67;;;;;;;;;;6299938;22;20046;-81
2023/03/07 05:04:04;;;;;;;9.52;2.15;;;;;;;;;;6299419;22;20070;-82
2023/03/07 05:06:39;;;;;;;7.88;1.95;;;;;;;;;;6300630;22;20997;-81
2023/03/07 05:09:16;;;;;;;8.05;2.55;;;;;;;;;;6273612;22;20020;-82
2023/03/07 05:11:51;;;;;;;7.07;1.88;;;;;;;;;;6299353;22;20024;-82
2023/03/07 05:14:26;;;;;;;10.07;2.08;;;;;;;;;;6302510;22;20069;-81
2023/03/07 05:17:00;;;;;;;9.93;2.13;;;;;;;;;;6299904;22;20058;-82
2023/03/07 05:19:34;;;;;;;8.98;2.00;;;;;;;;;;6300544;22;20032;-81
2023/03/07 05:22:10;;;;;;;7.50;2.10;;;;;;;;;;6300974;22;20047;-80
2023/03/07 05:24:45;;;;;;;7.47;2.15;;;;;;;;;;6298548;22;21000;-81
2023/03/07 05:27:19;;;;;;;7.05;2.17;;;;;;;;;;6301563;22;21369;-80
2023/03/07 05:29:53;;;;;;;11.38;2.00;;;;;;;;;;6300132;22;20070;-80
2023/03/07 05:32:27;;;;;;;8.82;1.95;;;;;;;;;;6300699;22;20034;-82
2023/03/07 05:35:02;;;;;;;6.63;1.70;;;;;;;;;;6299109;22;20419;-81
2023/03/07 05:37:36;;;;;;;9.90;1.60;;;;;;;;;;6301225;22;20031;-81
2023/03/07 05:40:10;;;;;;;10.07;1.85;;;;;;;;;;6300735;22;20018;-80
2023/03/07 05:42:44;;;;;;;5.07;1.02;;;;;;;;;;6300428;22;20451;-80
2023/03/07 05:45:19;;;;;;;4.07;1.00;;;;;;;;;;6300566;22;20030;-82
2023/03/07 05:47:53;;;;;;;6.22;1.08;;;;;;;;;;6300469;22;20035;-81
2023/03/07 05:50:27;;;;;;;4.28;0.68;;;;;;;;;;6299621;22;20032;-81
2023/03/07 05:53:02;;;;;;;4.05;0.68;;;;;;;;;;6299038;22;20031;-81
2023/03/07 05:55:34;;;;;;;4.68;0.60;;;;;;;;;;6276190;22;20028;-81
2023/03/07 05:58:08;;;;;;;2.80;0.60;;;;;;;;;;6301760;22;20024;-81
2023/03/07 06:00:42;;;;;;;5.80;0.90;;;;;;;;;;6300398;22;20015;-82
2023/03/07 06:03:16;;;;;;;7.93;0.90;;;;;;;;;;6299119;22;20019;-81
2023/03/07 06:05:50;;;;;;;3.97;0.70;;;;;;;;;;6302124;22;20027;-80
2023/03/07 06:08:25;;;;;;;4.18;0.77;;;;;;;;;;6302326;22;20059;-82
2023/03/07 06:11:00;;;;;;;6.18;0.75;;;;;;;;;;6302664;22;20042;-82
2023/03/07 06:13:35;;;;;;;3.70;0.80;;;;;;;;;;6300282;22;20031;-82
2023/03/07 06:16:08;;;;;;;7.95;0.80;;;;;;;;;;6301081;22;20034;-82
2023/03/07 06:18:46;;;;;;;4.82;0.90;;;;;;;;;;6302619;22;20027;-82
2023/03/07 06:21:19;;;;;;;2.25;0.60;;;;;;;;;;6300341;22;20039;-82
2023/03/07 06:23:54;;;;;;;4.57;0.80;;;;;;;;;;6300371;22;20016;-82
2023/03/07 06:26:28;;;;;;;3.95;0.85;;;;;;;;;;6300635;22;20932;-82
2023/03/07 06:29:02;;;;;;;3.88;0.77;;;;;;;;;;6302891;22;20074;-82
2023/03/07 06:31:36;;;;;;;4.95;0.70;;;;;;;;;;6301409;22;20031;-83
2023/03/07 06:34:09;;;;;;;3.17;0.75;;;;;;;;;;6303700;22;20027;-83
2023/03/07 06:36:43;;;;;;;6.95;0.90;;;;;;;;;;6305694;22;20062;-82
2023/03/07 06:39:19;;;;;;;3.10;0.80;;;;;;;;;;6302663;22;20023;-80
2023/03/07 06:41:50;;;;;;;3.65;0.80;;;;;;;;;;6299041;22;20219;-80
2023/03/07 06:44:23;;;;;;;5.38;0.73;;;;;;;;;;6298953;22;20028;-81
2023/03/07 06:46:58;;;;;;;5.93;1.20;;;;;;;;;;6298454;22;20035;-81
2023/03/07 06:49:30;;;;;;;5.00;1.02;;;;;;;;;;6300136;22;20028;-80
2023/03/07 06:52:03;;;;;;;3.83;0.90;;;;;;;;;;6274813;22;20081;-81
2023/03/07 06:54:37;;;;;;;6.45;0.95;;;;;;;;;;6277300;22;21029;-82
2023/03/07 06:57:11;;;;;;;7.40;1.00;;;;;;;;;;6306188;22;20023;-81
2023/03/07 06:59:45;;;;;;;4.30;1.00;;;;;;;;;;6278304;22;20028;-80
2023/03/07 07:02:21;;;;;;;5.03;1.02;;;;;;;;;;6303855;22;20031;-80
2023/03/07 07:04:56;;;;;;;4.60;1.08;;;;;;;;;;6300869;22;20023;-81
2023/03/07 07:07:30;;;;;;;6.22;1.02;;;;;;;;;;6277314;22;20023;-81
2023/03/07 07:10:03;;;;;;;4.75;1.70;;;;;;;;;;6278195;22;20066;-82
2023/03/07 07:12:36;;;;;;;5.63;1.70;;;;;;;;;;6305323;22;20024;-81
2023/03/07 07:15:10;;;;;;;5.53;2.00;;;;;;;;;;6276286;22;20031;-83
2023/03/07 07:17:44;;;;;;;6.38;1.67;;;;;;;;;;6303539;22;20038;-81
2023/03/07 07:20:18;;;;;;;7.82;1.65;;;;;;;;;;6304027;22;20016;-80
2023/03/07 07:22:53;;;;;;;9.00;1.63;;;;;;;;;;6301540;22;20085;-81
2023/03/07 07:25:27;;;;;;;7.72;1.90;;;;;;;;;;6301588;22;20020;-81
2023/03/07 07:28:00;;;;;;;5.82;2.35;;;;;;;;;;6300748;22;20032;-82
2023/03/07 07:30:34;;;;;;;5.45;2.60;;;;;;;;;;6298546;22;20028;-82
2023/03/07 07:33:07;;;;;;;5.20;2.00;;;;;;;;;;6299664;22;21010;-81
2023/03/07 07:35:43;;;;;;;5.55;2.15;;;;;;;;;;6299264;22;20078;-80
2023/03/07 07:38:16;;;;;;;5.05;2.25;;;;;;;;;;6273180;22;20023;-81
2023/03/07 07:40:51;;;;;;;7.05;2.42;;;;;;;;;;6299791;22;20074;-81
2023/03/07 07:43:25;;;;;;;5.60;2.38;;;;;;;;;;6299629;22;20019;-80
2023/03/07 07:45:59;;;;;;;6.88;2.40;;;;;;;;;;6302362;22;21119;-79
2023/03/07 07:48:33;;;;;;;5.63;2.78;;;;;;;;;;6303416;22;20020;-79
2023/03/07 07:51:06;;;;;;;6.43;2.58;;;;;;;;;;6300723;22;20028;-80
2023/03/07 07:53:40;;;;;;;5.53;2.42;;;;;;;;;;6306393;22;20023;-79
2023/03/07 07:56:14;;;;;;;6.72;3.85;;;;;;;;;;6301539;22;20073;-78
2023/03/07 07:58:49;;;;;;;11.18;4.28;;;;;;;;;;6301842;22;20027;-79
2023/03/07 08:01:23;;;;;;;5.70;2.33;;;;;;;;;;6301847;22;20029;-78
2023/03/07 08:03:57;;;;;;;7.55;2.78;;;;;;;;;;6300264;22;20016;-78
2023/03/07 08:06:31;;;;;;;5.90;2.40;;;;;;;;;;6302567;22;20802;-77
2023/03/07 08:09:04;;;;;;;6.82;2.75;;;;;;;;;;6301997;22;20019;-79
2023/03/07 08:11:38;;;;;;;6.55;2.75;;;;;;;;;;6302995;22;20027;-77
2023/03/07 08:14:12;;;;;;;5.90;2.08;;;;;;;;;;6302260;22;20020;-79
2023/03/07 08:16:47;;;;;;;8.15;3.28;;;;;;;;;;6302952;22;20028;-81
2023/03/07 08:19:20;;;;;;;8.50;2.60;;;;;;;;;;6278533;22;20031;-79
2023/03/07 08:21:54;;;;;;;5.45;2.40;;;;;;;;;;6301539;22;20020;-79
2023/03/07 08:24:29;;;;;;;5.80;2.38;;;;;;;;;;6303432;22;20026;-77
2023/03/07 08:27:07;;;;;;;11.38;4.05;;;;;;;;;;6279134;22;20507;-79
2023/03/07 08:29:38;;;;;;;6.50;2.78;;;;;;;;;;6305411;22;20020;-79
2023/03/07 08:32:14;;;;;;;9.32;3.63;;;;;;;;;;6303999;22;20031;-81
2023/03/07 08:34:49;;;;;;;6.82;3.13;;;;;;;;;;6306141;22;20160;-78
2023/03/07 08:37:22;;;;;;;9.43;3.92;;;;;;;;;;6306146;22;20082;-79
2023/03/07 08:39:57;;;;;;;8.60;3.03;;;;;;;;;;6305469;22;20031;-78
2023/03/07 08:42:31;;;;;;;7.25;2.97;;;;;;;;;;6305851;22;20054;-78
2023/03/07 08:45:05;;;;;;;9.10;3.58;;;;;;;;;;6303157;22;20024;-78
2023/03/07 08:47:39;;;;;;;7.32;3.22;;;;;;;;;;6305312;22;20019;-78
2023/03/07 08:50:13;;;;;;;7.13;2.33;;;;;;;;;;6305676;22;20020;-79
2023/03/07 08:52:47;;;;;;;8.57;3.28;;;;;;;;;;6303687;22;20486;-77
2023/03/07 08:55:22;;;;;;;6.43;3.03;;;;;;;;;;6303339;22;20042;-78
2023/03/07 08:57:55;;;;;;;8.32;3.25;;;;;;;;;;6305538;22;20082;-79
2023/03/07 09:00:30;;;;;;;8.68;2.58;;;;;;;;;;6305326;22;21165;-79
2023/03/07 09:03:04;;;;;;;9.05;3.58;;;;;;;;;;6303332;22;20036;-77
2023/03/07 09:05:40;;;;;;;8.07;3.20;;;;;;;;;;6279185;22;20019;-79
2023/03/07 09:08:15;;;;;;;10.75;3.78;;;;;;;;;;6305649;22;20008;-78
2023/03/07 09:10:49;;;;;;;9.02;2.95;;;;;;;;;;6307088;22;20089;-79
2023/03/07 09:13:24;;;;;;;5.93;2.60;;;;;;;;;;6281999;22;20020;-79
2023/03/07 09:15:58;;;;;;;8.43;3.30;;;;;;;;;;6279016;22;20015;-79
2023/03/07 09:18:33;;;;;;;6.78;2.90;;;;;;;;;;6307339;22;20031;-79
2023/03/07 09:21:06;;;;;;;9.02;3.40;;;;;;;;;;6279384;22;20023;-79
2023/03/07 09:23:42;;;;;;;6.80;3.03;;;;;;;;;;6282833;22;20030;-79
2023/03/07 09:26:16;;;;;;;7.03;2.75;;;;;;;;;;6308923;22;20029;-77
2023/03/07 09:28:50;;;;;;;8.15;3.03;;;;;;;;;;6282275;22;20456;-76
2023/03/07 09:31:25;;;;;;;10.95;2.92;;;;;;;;;;6306453;22;20027;-78
2023/03/07 09:33:58;;;;;;;8.40;3.20;;;;;;;;;;6305915;22;20012;-77
2023/03/07 09:36:33;;;;;;;6.72;2.50;;;;;;;;;;6307934;22;20074;-78
2023/03/07 09:39:13;;;;;;;5.45;2.20;;;;;;;;;;6308700;22;20823;-78
2023/03/07 09:41:59;;;;;;;5.05;2.10;;;;;;;;;;6306284;22;20032;-79
2023/03/07 09:44:34;;;;;;;5.45;1.90;;;;;;;;;;6305543;22;21044;-80
2023/03/07 09:47:11;;;;;;;6.93;2.03;;;;;;;;;;6305813;22;20059;-78
2023/03/07 09:49:49;;;;;;;5.55;1.90;;;;;;;;;;6304985;22;20004;-79
2023/03/07 09:52:26;;;;;;;5.35;1.83;;;;;;;;;;6305412;22;20020;-80
2023/03/07 09:55:01;;;;;;;5.88;2.10;;;;;;;;;;6304832;22;20016;-76
2023/03/07 09:57:40;;;;;;;5.22;1.85;;;;;;;;;;6305016;22;20051;-76
2023/03/07 10:00:17;;;;;;;6.05;2.13;;;;;;;;;;6303049;22;20024;-77
2023/03/07 10:03:07;;;;;;;5.28;2.20;;;;;;;;;;6301706;22;20035;-78
2023/03/07 10:05:42;;;;;;;4.93;1.98;;;;;;;;;;6302138;22;20034;-78
2023/03/07 10:08:26;;;;;;;6.32;2.30;;;;;;;;;;6274601;22;20020;-80
2023/03/07 10:11:07;;;;;;;6.85;1.90;;;;;;;;;;6302390;22;20035;-79
2023/03/07 10:13:41;;;;;;;10.73;2.20;;;;;;;;;;6301490;22;20046;-79
2023/03/07 10:16:21;;;;;;;5.55;2.05;;;;;;;;;;6302306;22;20024;-76
2023/03/07 10:19:02;;;;;;;9.20;2.05;;;;;;;;;;6301841;22;20039;-78
2023/03/07 10:21:50;;;;;;;4.13;1.80;;;;;;;;;;6303361;22;20026;-79
2023/03/07 10:24:34;;;;;;;4.82;1.67;;;;;;;;;;6301669;22;20910;-78
2023/03/07 10:27:14;;;;;;;8.23;2.00;;;;;;;;;;6302566;22;20031;-79
2023/03/07 10:29:52;;;;;;;6.57;2.20;;;;;;;;;;6302687;22;20023;-79
2023/03/07 10:32:45;;;;;;;4.93;1.90;;;;;;;;;;6301205;22;20071;-77
2023/03/07 10:35:20;;;;;;;5.95;2.03;;;;;;;;;;6301385;22;20024;-79
2023/03/07 10:38:03;;;;;;;8.75;1.80;;;;;;;;;;6302728;22;20070;-78
2023/03/07 10:40:37;;;;;;;3.78;1.67;;;;;;;;;;6304257;22;20030;-79
2023/03/07 10:43:17;;;;;;;5.72;1.90;;;;;;;;;;6300982;22;20486;-77
2023/03/07 10:45:52;;;;;;;5.05;1.90;;;;;;;;;;6302544;22;20063;-78
2023/03/07 10:48:26;;;;;;;5.60;1.90;;;;;;;;;;6302350;22;20034;-78
2023/03/07 10:51:16;;;;;;;7.38;2.33;;;;;;;;;;6301621;22;20020;-78
2023/03/07 10:53:46;;;;;;;5.30;1.90;;;;;;;;;;6300098;22;20818;-77
2023/03/07 10:56:17;;;;;;;6.65;2.05;;;;;;;;;;6302655;22;20027;-77
2023/03/07 10:59:02;;;;;;;6.00;1.80;;;;;;;;;;6275057;22;20023;-79
2023/03/07 11:01:35;;;;;;;7.95;2.22;;;;;;;;;;6302613;22;20027;-78
2023/03/07 11:04:20;;;;;;;5.22;2.40;;;;;;;;;;6299856;22;20822;-78
2023/03/07 11:06:59;;;;;;;9.48;2.95;;;;;;;;;;6301252;22;20016;-78
2023/03/07 11:09:32;;;;;;;6.43;2.05;;;;;;;;;;6274395;22;20031;-78
2023/03/07 11:12:20;;;;;;;5.13;1.92;;;;;;;;;;6302328;22;20027;-78
2023/03/07 11:15:26;;;;;;;7.03;2.15;;;;;;;;;;6299328;22;20058;-78
2023/03/07 11:18:00;;;;;;;7.50;2.28;;;;;;;;;;6269463;22;20030;-78
2023/03/07 11:20:50;;;;;;;6.60;2.55;;;;;;;;;;6301778;22;20928;-78
2023/03/07 11:23:32;;;;;;;6.03;1.83;;;;;;;;;;6301494;22;20011;-78
2023/03/07 11:26:16;;;;;;;4.00;1.40;;;;;;;;;;6302447;22;20802;-79
2023/03/07 11:29:03;;;;;;;5.18;2.05;;;;;;;;;;6302149;22;20028;-78
2023/03/07 11:31:43;;;;;;;5.30;1.80;;;;;;;;;;6302776;22;20014;-77
2023/03/07 11:34:36;;;;;;;4.22;1.30;;;;;;;;;;6300767;22;20015;-78
2023/03/07 11:37:15;;;;;;;4.78;1.17;;;;;;;;;;6301064;22;20590;-79
2023/03/07 11:39:58;;;;;;;4.35;0.70;;;;;;;;;;6300857;22;20023;-79
2023/03/07 11:42:37;;;;;;;3.95;0.88;;;;;;;;;;6302176;22;20103;-79
2023/03/07 11:45:26;;;;;;;2.88;0.90;;;;;;;;;;6302903;22;20047;-79
2023/03/07 11:48:06;;;;;;;2.20;0.80;;;;;;;;;;6300022;22;20050;-77
2023/03/07 11:50:42;;;;;;;5.45;0.88;;;;;;;;;;6301507;22;20031;-78
2023/03/07 11:53:15;;;;;;;5.07;1.10;;;;;;;;;;6299741;22;20476;-78
2023/03/07 11:55:54;;;;;;;8.18;1.00;;;;;;;;;;6299078;22;20035;-77
2023/03/07 11:58:27;;;;;;;2.20;0.70;;;;;;;;;;6301154;22;20036;-79
2023/03/07 12:01:08;;;;;;;3.88;0.80;;;;;;;;;;6301677;22;20031;-78
2023/03/07 12:03:51;;;;;;;2.35;0.70;;;;;;;;;;6300870;22;20929;-78
2023/03/07 12:06:25;;;;;;;3.92;0.82;;;;;;;;;;6301869;22;20062;-79
2023/03/07 12:09:04;;;;;;;5.80;1.00;;;;;;;;;;6303146;22;20874;-78
2023/03/07 12:11:37;;;;;;;5.35;0.93;;;;;;;;;;6303152;22;20027;-79
2023/03/07 12:14:16;;;;;;;3.55;0.88;;;;;;;;;;6301051;22;20028;-79
2023/03/07 12:16:49;;;;;;;3.28;0.70;;;;;;;;;;6303769;22;20028;-79
2023/03/07 12:19:27;;;;;;;3.92;0.85;;;;;;;;;;6301654;22;20028;-78
2023/03/07 12:22:01;;;;;;;9.85;1.13;;;;;;;;;;6301782;22;20019;-79
2023/03/07 12:24:46;;;;;;;6.35;0.80;;;;;;;;;;6301067;22;20031;-78
2023/03/07 12:27:28;;;;;;;5.72;1.05;;;;;;;;;;6302322;22;20487;-79
2023/03/07 12:30:16;;;;;;;6.32;1.00;;;;;;;;;;6302891;22;20893;-79
2023/03/07 12:32:50;;;;;;;2.65;0.60;;;;;;;;;;6301692;22;20019;-79
2023/03/07 12:35:33;;;;;;;5.53;0.98;;;;;;;;;;6275588;22;20015;-78
2023/03/07 12:38:23;;;;;;;3.85;0.65;;;;;;;;;;6302991;22;20058;-78
2023/03/07 12:41:03;;;;;;;2.55;0.80;;;;;;;;;;6302213;22;20035;-78
2023/03/07 12:43:44;;;;;;;2.83;0.80;;;;;;;;;;6302453;22;20031;-78
2023/03/07 12:46:24;;;;;;;6.70;1.40;;;;;;;;;;6301869;22;20897;-78
2023/03/07 12:49:12;;;;;;;8.48;1.90;;;;;;;;;;6303259;22;20016;-79
2023/03/07 12:51:49;;;;;;;7.78;2.50;;;;;;;;;;6302717;22;20016;-79
2023/03/07 12:54:31;;;;;;;3.72;1.20;;;;;;;;;;6298891;22;20026;-78
2023/03/07 12:57:33;;;;;;;2.08;0.60;;;;;;;;;;6301887;22;20032;-79
2023/03/07 13:00:14;;;;;;;1.83;0.50;;;;;;;;;;6289422;22;20027;-80
2023/03/07 13:02:57;;;;;;;2.17;0.60;;;;;;;;;;6300978;22;20032;-79
2023/03/07 13:05:29;;;;;;;4.28;1.20;;;;;;;;;;6275227;22;20027;-79
2023/03/07 13:08:05;;;;;;;1.95;0.60;;;;;;;;;;6301632;22;20024;-79
2023/03/07 13:10:44;;;;;;;3.67;0.80;;;;;;;;;;6301084;22;20016;-79
2023/03/07 13:13:34;;;;;;;3.35;0.75;;;;;;;;;;6300005;22;20070;-79
2023/03/07 13:16:13;;;;;;;6.25;0.80;;;;;;;;;;6300682;22;20023;-79
2023/03/07 13:18:47;;;;;;;2.50;0.80;;;;;;;;;;6300907;22;20032;-79
2023/03/07 13:21:33;;;;;;;3.15;0.60;;;;;;;;;;6274946;22;20027;-79
2023/03/07 13:24:25;;;;;;;4.55;0.57;;;;;;;;;;6301958;22;20020;-80
2023/03/07 13:26:59;;;;;;;3.42;0.52;;;;;;;;;;6302198;22;20484;-78
2023/03/07 13:29:55;;;;;;;3.15;0.70;;;;;;;;;;6302251;22;20024;-79
2023/03/07 13:32:47;;;;;;;2.05;0.70;;;;;;;;;;6296636;22;20752;-79
2023/03/07 13:35:30;;;;;;;6.07;0.93;;;;;;;;;;6303293;22;20862;-79
2023/03/07 13:38:14;;;;;;;4.80;0.60;;;;;;;;;;6304243;22;20078;-79
2023/03/07 13:40:59;;;;;;;2.70;0.70;;;;;;;;;;6276939;22;20023;-79
2023/03/07 13:43:31;;;;;;;3.83;0.80;;;;;;;;;;6277345;22;20020;-79
2023/03/07 13:46:06;;;;;;;4.40;0.80;;;;;;;;;;6304299;22;20027;-79
2023/03/07 13:48:40;;;;;;;2.13;0.80;;;;;;;;;;6302189;22;20441;-79
2023/03/07 13:51:16;;;;;;;2.88;0.90;;;;;;;;;;6304125;22;20030;-79
2023/03/07 13:54:02;;;;;;;4.03;0.98;;;;;;;;;;6301547;22;20031;-79
2023/03/07 13:56:37;;;;;;;3.97;0.90;;;;;;;;;;6304959;22;20023;-79
2023/03/07 13:59:19;;;;;;;3.40;1.10;;;;;;;;;;6303360;22;20024;-79
2023/03/07 14:02:03;;;;;;;3.40;0.98;;;;;;;;;;6303925;22;20055;-78
2023/03/07 14:04:38;;;;;;;3.53;1.08;;;;;;;;;;6303370;22;20023;-79
2023/03/07 14:07:27;;;;;;;2.88;0.95;;;;;;;;;;6277526;22;20531;-79
2023/03/07 14:10:05;;;;;;;6.35;1.10;;;;;;;;;;6277155;22;20008;-79
2023/03/07 14:12:55;;;;;;;5.10;1.40;;;;;;;;;;6279607;22;20031;-80
2023/03/07 14:15:35;;;;;;;6.68;1.25;;;;;;;;;;6303919;22;20054;-79
2023/03/07 14:18:22;;;;;;;5.80;1.48;;;;;;;;;;6302951;22;20898;-79
2023/03/07 14:20:56;;;;;;;3.22;1.00;;;;;;;;;;6303413;22;20019;-79
2023/03/07 14:23:33;;;;;;;4.28;1.10;;;;;;;;;;6302309;22;20016;-79
2023/03/07 14:26:11;;;;;;;7.60;1.13;;;;;;;;;;6279074;22;20028;-79
2023/03/07 14:28:50;;;;;;;4.28;1.20;;;;;;;;;;6303486;22;20024;-79
2023/03/07 14:31:31;;;;;;;5.60;1.20;;;;;;;;;;6304780;22;20024;-79
2023/03/07 14:34:28;;;;;;;5.22;1.10;;;;;;;;;;6277322;22;20070;-79
2023/03/07 14:37:09;;;;;;;5.63;1.35;;;;;;;;;;6298667;22;20016;-79
2023/03/07 14:39:48;;;;;;;7.10;1.20;;;;;;;;;;6278403;22;20669;-79
2023/03/07 14:42:23;;;;;;;3.90;1.10;;;;;;;;;;6279592;22;20019;-79
2023/03/07 14:45:02;;;;;;;3.38;0.90;;;;;;;;;;6276482;22;20059;-79
2023/03/07 14:47:56;;;;;;;3.72;0.98;;;;;;;;;;6304559;22;20024;-78
2023/03/07 14:50:32;;;;;;;3.95;0.80;;;;;;;;;;6304529;22;20094;-79
2023/03/07 14:53:22;;;;;;;4.75;1.20;;;;;;;;;;6300870;22;20023;-79
2023/03/07 14:56:00;;;;;;;3.63;0.95;;;;;;;;;;6303254;22;20019;-80
2023/03/07 14:58:34;;;;;;;4.28;1.00;;;;;;;;;;6304932;22;20019;-79
2023/03/07 15:01:15;;;;;;;6.80;1.10;;;;;;;;;;6303361;22;20012;-77
2023/03/07 15:03:51;;;;;;;3.72;1.08;;;;;;;;;;6279486;22;20031;-80
2023/03/07 15:06:26;;;;;;;3.03;0.95;;;;;;;;;;6306446;22;20027;-80
2023/03/07 15:09:03;;;;;;;4.55;1.10;;;;;;;;;;6305715;22;20020;-80
2023/03/07 15:11:37;;;;;;;7.13;2.03;;;;;;;;;;6305364;22;20070;-79
2023/03/07 15:14:10;;;;;;;6.03;2.20;;;;;;;;;;6303414;22;20011;-77
2023/03/07 15:16:47;;;;;;;6.63;1.70;;;;;;;;;;6277494;22;20034;-78
2023/03/07 15:19:39;;;;;;;4.25;1.27;;;;;;;;;;6304967;22;20023;-78
2023/03/07 15:22:21;;;;;;;3.40;0.90;;;;;;;;;;6305624;22;20003;-78
2023/03/07 15:24:55;;;;;;;3.90;0.80;;;;;;;;;;6303646;22;20024;-79
2023/03/07 15:27:32;;;;;;;2.85;0.68;;;;;;;;;;6303433;22;20039;-79
2023/03/07 15:30:24;;;;;;;4.78;0.90;;;;;;;;;;6277980;22;20023;-77
2023/03/07 15:33:23;;;;;;;4.30;1.10;;;;;;;;;;6302941;22;20028;-78
2023/03/07 15:36:15;;;;;;;3.33;0.90;;;;;;;;;;6276073;22;20181;-79